LEMT weather

Casarrubios Del Monte Airport
Toledo, Castilla-La Mancha, Spain

Public forecast

Using degrees Celsius for public forecast. Weather courtesy of forecast.io.

Closest aviation weather report (METAR) to Casarrubios Del Monte Airport

Closest report is Getafe Air Base, 14.3 nm (26.5 km) ENE. Retrieved 2019/10/21 09:00 UTC (27 minutes ago):

LEGT 210900Z 03004KT 010V070 9999 FEW043 09/06 Q1019

Closest aviation forecast (TAF) to Casarrubios Del Monte Airport

Forecast is more than 12 hours old.

Closest forecast is Getafe Air Base, 14.3 nm (26.5 km) ENE. Retrieved 2018/03/28 12:33 UTC (2 years ago):

TAF LEGT 281100Z 2812/2824 24010KT CAVOK PROB40 TEMPO 2814/2818 27015G25KT TEMPO 2820/2824 28008KT